Time;durP1;ratioP1;P1;durP2;ratioP2;P2;SDS_P1;SDS_P2;PMS_P1;PMS_P2;Temp;Humidity;BMP_temperature;BMP_pressure;BME280_temperature;BME280_humidity;BME280_pressure;Samples;Min_cycle;Max_cycle;Signal;HPM_P1;HPM_P2
2022/08/10 00:01:33;;;;;;;10.77;6.30;;;;;;;;;;5112043;27;20450;-72
2022/08/10 00:03:59;;;;;;;9.95;6.13;;;;;;;;;;5111295;28;20052;-72
2022/08/10 00:06:25;;;;;;;9.00;5.78;;;;;;;;;;5110832;28;20075;-73
2022/08/10 00:08:52;;;;;;;9.57;6.57;;;;;;;;;;5111336;28;20026;-72
2022/08/10 00:11:18;;;;;;;13.15;6.47;;;;;;;;;;5111223;28;20448;-72
2022/08/10 00:13:44;;;;;;;11.23;7.60;;;;;;;;;;5110770;28;20030;-72
2022/08/10 00:16:10;;;;;;;8.20;5.85;;;;;;;;;;5111201;28;20548;-72
2022/08/10 00:20:27;;;;;;;11.70;6.65;;;;;;;;;;5111323;27;20393;-72
2022/08/10 00:24:48;;;;;;;10.75;6.78;;;;;;;;;;5112191;27;20389;-72
2022/08/10 00:27:15;;;;;;;10.55;6.47;;;;;;;;;;5109689;28;20024;-73
2022/08/10 00:29:41;;;;;;;10.70;6.40;;;;;;;;;;5111299;28;20031;-72
2022/08/10 00:32:07;;;;;;;9.80;6.40;;;;;;;;;;5110051;28;20020;-73
2022/08/10 00:34:33;;;;;;;10.05;5.95;;;;;;;;;;5110896;28;20023;-73
2022/08/10 00:37:00;;;;;;;9.38;6.30;;;;;;;;;;5111502;28;20028;-72
2022/08/10 00:39:27;;;;;;;9.02;6.25;;;;;;;;;;5111208;28;20023;-72
2022/08/10 00:41:53;;;;;;;11.38;6.82;;;;;;;;;;5110817;28;20024;-72
2022/08/10 00:44:44;;;;;;;8.30;5.80;;;;;;;;;;5111788;27;20462;-72
2022/08/10 00:47:11;;;;;;;10.23;6.68;;;;;;;;;;5111585;28;20031;-72
2022/08/10 00:49:38;;;;;;;8.63;6.32;;;;;;;;;;5109647;28;20028;-72
2022/08/10 00:52:04;;;;;;;9.65;6.57;;;;;;;;;;5111495;28;20020;-72
2022/08/10 00:54:31;;;;;;;9.85;6.35;;;;;;;;;;5109941;28;20024;-72
2022/08/10 00:56:57;;;;;;;9.30;6.20;;;;;;;;;;5110820;28;20028;-72
2022/08/10 00:59:23;;;;;;;9.80;6.68;;;;;;;;;;5111149;28;20027;-72
2022/08/10 01:01:49;;;;;;;9.23;6.65;;;;;;;;;;5111099;28;20067;-72
2022/08/10 01:04:16;;;;;;;10.45;6.60;;;;;;;;;;5109316;28;20076;-72
2022/08/10 01:06:51;;;;;;;12.45;5.85;;;;;;;;;;5109709;28;20026;-72
2022/08/10 01:10:03;;;;;;;11.75;6.97;;;;;;;;;;5111672;27;20388;-72
2022/08/10 01:12:32;;;;;;;10.43;6.10;;;;;;;;;;5111454;28;20031;-72
2022/08/10 01:15:07;;;;;;;9.60;6.70;;;;;;;;;;5111326;28;20020;-72
2022/08/10 01:17:50;;;;;;;8.90;6.35;;;;;;;;;;5110888;28;20016;-72
2022/08/10 01:20:35;;;;;;;8.65;6.20;;;;;;;;;;5110138;28;20020;-72
2022/08/10 01:23:11;;;;;;;10.70;6.68;;;;;;;;;;5111351;28;20027;-73
2022/08/10 01:25:50;;;;;;;10.93;6.53;;;;;;;;;;5110807;28;20031;-72
2022/08/10 01:28:35;;;;;;;9.32;6.43;;;;;;;;;;5109764;28;20161;-72
2022/08/10 01:33:12;;;;;;;9.38;6.45;;;;;;;;;;5111298;27;20815;-73
2022/08/10 01:35:43;;;;;;;11.93;6.88;;;;;;;;;;5108297;28;20502;-72
2022/08/10 01:38:23;;;;;;;9.50;6.68;;;;;;;;;;5111192;27;20380;-72
2022/08/10 01:41:04;;;;;;;9.57;6.70;;;;;;;;;;5110083;28;20051;-72
2022/08/10 01:45:41;;;;;;;9.30;6.80;;;;;;;;;;5111024;27;20773;-73
2022/08/10 01:49:46;;;;;;;10.60;6.50;;;;;;;;;;5112126;27;20424;-72
2022/08/10 01:52:13;;;;;;;10.60;6.47;;;;;;;;;;5111044;28;20062;-72
2022/08/10 01:56:54;;;;;;;10.35;6.53;;;;;;;;;;5111698;27;20480;-72
2022/08/10 01:59:28;;;;;;;12.23;7.03;;;;;;;;;;5111029;28;20028;-72
2022/08/10 02:01:58;;;;;;;9.57;6.50;;;;;;;;;;5111374;28;20023;-72
2022/08/10 02:04:25;;;;;;;13.13;6.13;;;;;;;;;;5111572;28;20077;-72
2022/08/10 02:06:52;;;;;;;14.07;7.63;;;;;;;;;;5126551;28;20034;-72
2022/08/10 02:09:25;;;;;;;9.75;6.95;;;;;;;;;;5127055;28;20380;-72
2022/08/10 02:11:51;;;;;;;12.02;6.78;;;;;;;;;;5111209;28;20024;-72
2022/08/10 02:14:18;;;;;;;9.57;6.15;;;;;;;;;;5110795;28;20407;-72
2022/08/10 02:16:45;;;;;;;10.35;6.55;;;;;;;;;;5111016;28;20098;-72
2022/08/10 02:19:14;;;;;;;9.77;6.72;;;;;;;;;;5111281;28;20068;-72
2022/08/10 02:21:42;;;;;;;8.75;5.90;;;;;;;;;;5126382;28;20076;-72
2022/08/10 02:24:11;;;;;;;9.32;6.18;;;;;;;;;;5110908;28;20024;-72
2022/08/10 02:29:10;;;;;;;9.80;6.63;;;;;;;;;;5111608;27;20310;-72
2022/08/10 02:31:37;;;;;;;9.45;6.50;;;;;;;;;;5111348;28;20032;-72
2022/08/10 02:34:04;;;;;;;8.40;5.97;;;;;;;;;;5110951;28;20032;-72
2022/08/10 02:36:31;;;;;;;11.25;6.38;;;;;;;;;;5111311;28;20016;-73
2022/08/10 02:38:59;;;;;;;9.38;6.55;;;;;;;;;;5111371;28;20024;-72
2022/08/10 02:41:42;;;;;;;8.82;5.75;;;;;;;;;;5111481;27;20388;-72
2022/08/10 02:44:31;;;;;;;10.55;6.75;;;;;;;;;;5110165;28;20031;-72
2022/08/10 02:50:18;;;;;;;8.80;6.05;;;;;;;;;;5071369;28;20984;-72
2022/08/10 02:52:46;;;;;;;10.48;6.50;;;;;;;;;;5069523;28;20071;-72
2022/08/10 02:55:38;;;;;;;10.38;6.47;;;;;;;;;;5070504;28;20024;-72
2022/08/10 02:58:09;;;;;;;10.57;7.18;;;;;;;;;;5062223;28;20052;-72
2022/08/10 03:00:40;;;;;;;10.00;6.45;;;;;;;;;;5070650;28;20027;-72
2022/08/10 03:04:54;;;;;;;10.57;7.15;;;;;;;;;;5112186;27;20400;-73
2022/08/10 03:07:40;;;;;;;9.38;6.13;;;;;;;;;;5111866;27;20396;-72
2022/08/10 03:11:37;;;;;;;10.63;7.13;;;;;;;;;;5111898;27;20800;-72
2022/08/10 03:14:04;;;;;;;8.70;6.20;;;;;;;;;;5111409;28;20031;-73
2022/08/10 03:18:03;;;;;;;9.80;6.93;;;;;;;;;;5110988;27;20111;-73
2022/08/10 03:21:28;;;;;;;10.02;6.50;;;;;;;;;;5111545;27;20472;-73
2022/08/10 03:23:55;;;;;;;11.73;7.35;;;;;;;;;;5126783;28;20028;-73
2022/08/10 03:26:21;;;;;;;12.35;7.32;;;;;;;;;;5111308;28;20030;-72
2022/08/10 03:28:48;;;;;;;13.70;7.95;;;;;;;;;;5111283;28;20024;-72
2022/08/10 03:32:38;;;;;;;10.38;6.88;;;;;;;;;;5111882;27;20396;-72
2022/08/10 03:35:05;;;;;;;10.82;7.57;;;;;;;;;;5111354;28;20032;-73
2022/08/10 03:37:31;;;;;;;11.80;6.80;;;;;;;;;;5111010;28;20103;-73
2022/08/10 03:39:57;;;;;;;11.45;7.72;;;;;;;;;;5111252;28;20023;-73
2022/08/10 03:42:24;;;;;;;11.07;7.35;;;;;;;;;;5111322;28;20020;-73
2022/08/10 03:45:59;;;;;;;12.20;7.78;;;;;;;;;;5110999;27;20815;-73
2022/08/10 03:49:01;;;;;;;10.23;7.72;;;;;;;;;;5111455;27;20388;-73
2022/08/10 03:51:27;;;;;;;11.90;7.28;;;;;;;;;;5110916;28;20035;-73
2022/08/10 03:53:54;;;;;;;10.07;7.10;;;;;;;;;;5111463;28;20059;-72
2022/08/10 03:56:21;;;;;;;12.05;7.63;;;;;;;;;;5111309;28;20360;-72
2022/08/10 03:59:02;;;;;;;11.85;7.68;;;;;;;;;;5070905;28;20909;-72
2022/08/10 04:04:48;;;;;;;10.55;7.25;;;;;;;;;;5112149;27;20396;-74
2022/08/10 04:07:14;;;;;;;13.57;7.85;;;;;;;;;;5109721;28;20081;-74
2022/08/10 04:09:40;;;;;;;10.63;7.65;;;;;;;;;;5111308;28;20020;-74
2022/08/10 04:13:10;;;;;;;13.77;8.98;;;;;;;;;;5111339;27;20445;-73
2022/08/10 04:15:36;;;;;;;12.25;8.45;;;;;;;;;;5111337;28;20028;-73
2022/08/10 04:18:02;;;;;;;13.70;8.65;;;;;;;;;;5110026;28;20028;-72
2022/08/10 04:20:30;;;;;;;13.93;8.80;;;;;;;;;;5111162;28;20095;-72
2022/08/10 04:22:59;;;;;;;12.10;8.60;;;;;;;;;;5109956;28;20487;-72
2022/08/10 04:25:26;;;;;;;12.50;8.57;;;;;;;;;;5110062;28;20090;-72
2022/08/10 04:27:52;;;;;;;12.95;9.02;;;;;;;;;;5109586;28;20406;-72
2022/08/10 04:30:18;;;;;;;11.43;8.60;;;;;;;;;;5109800;28;20495;-73
2022/08/10 04:32:48;;;;;;;13.63;9.48;;;;;;;;;;5109712;28;20040;-73
2022/08/10 04:35:16;;;;;;;13.73;9.18;;;;;;;;;;5109207;28;20051;-73
2022/08/10 04:37:43;;;;;;;13.60;10.32;;;;;;;;;;5111034;28;20051;-72
2022/08/10 04:43:46;;;;;;;15.07;11.90;;;;;;;;;;5112203;27;20389;-72
2022/08/10 04:46:12;;;;;;;19.45;14.40;;;;;;;;;;5111379;28;20028;-72
2022/08/10 04:48:38;;;;;;;17.20;12.07;;;;;;;;;;5110854;28;20024;-72
2022/08/10 04:51:47;;;;;;;14.30;9.93;;;;;;;;;;5111631;27;20450;-72
2022/08/10 04:54:13;;;;;;;14.18;10.10;;;;;;;;;;5110225;28;20032;-72
2022/08/10 04:58:27;;;;;;;13.52;10.13;;;;;;;;;;5091802;27;20443;-72
2022/08/10 05:02:55;;;;;;;14.35;9.38;;;;;;;;;;5111363;27;20423;-72
2022/08/10 05:05:21;;;;;;;15.00;10.13;;;;;;;;;;5111372;28;20024;-72
2022/08/10 05:08:37;;;;;;;15.82;10.98;;;;;;;;;;5111625;27;20401;-72
2022/08/10 05:11:35;;;;;;;15.20;10.65;;;;;;;;;;5112070;27;20458;-72
2022/08/10 05:15:10;;;;;;;13.95;9.60;;;;;;;;;;5111726;27;20409;-72
2022/08/10 05:19:48;;;;;;;12.98;9.85;;;;;;;;;;5112266;27;20898;-72
2022/08/10 05:22:14;;;;;;;13.63;10.60;;;;;;;;;;5110060;28;20483;-72
2022/08/10 05:24:40;;;;;;;14.88;11.20;;;;;;;;;;5109642;28;20028;-72
2022/08/10 05:27:07;;;;;;;13.30;10.27;;;;;;;;;;5111346;28;20034;-72
2022/08/10 05:29:33;;;;;;;17.17;10.57;;;;;;;;;;5111006;28;20020;-72
2022/08/10 05:31:59;;;;;;;13.00;10.13;;;;;;;;;;5111236;28;20024;-73
2022/08/10 05:35:43;;;;;;;14.30;11.38;;;;;;;;;;5111913;27;20397;-73
2022/08/10 05:38:10;;;;;;;14.82;10.50;;;;;;;;;;5111025;28;20550;-72
2022/08/10 05:40:40;;;;;;;13.27;10.45;;;;;;;;;;5111358;28;20103;-72
2022/08/10 05:43:06;;;;;;;12.75;9.88;;;;;;;;;;5111289;28;20028;-72
2022/08/10 05:45:33;;;;;;;15.48;11.30;;;;;;;;;;5110783;28;20030;-72
2022/08/10 05:47:59;;;;;;;15.05;10.60;;;;;;;;;;5111197;28;20016;-76
2022/08/10 05:50:27;;;;;;;16.05;11.60;;;;;;;;;;5108380;28;20027;-76
2022/08/10 05:53:07;;;;;;;13.98;10.02;;;;;;;;;;5113571;27;20154;-79
2022/08/10 05:55:33;;;;;;;15.82;11.05;;;;;;;;;;5090951;28;20046;-75
2022/08/10 05:58:00;;;;;;;16.00;10.60;;;;;;;;;;5090490;28;20820;-75
2022/08/10 06:00:26;;;;;;;14.88;10.98;;;;;;;;;;5072840;28;20059;-75
2022/08/10 06:02:55;;;;;;;16.45;11.93;;;;;;;;;;5090696;28;20020;-76
2022/08/10 06:05:31;;;;;;;14.85;11.48;;;;;;;;;;5090803;27;20386;-77
2022/08/10 06:08:01;;;;;;;16.75;11.88;;;;;;;;;;5091031;28;20031;-78
2022/08/10 06:10:28;;;;;;;17.88;11.43;;;;;;;;;;5090900;28;20528;-77
2022/08/10 06:16:19;;;;;;;15.73;11.68;;;;;;;;;;5111286;28;20157;-78
2022/08/10 06:18:45;;;;;;;16.20;10.75;;;;;;;;;;5111009;28;20031;-78
2022/08/10 06:29:22;;;;;;;20.38;11.98;;;;;;;;;;5111586;27;20473;-74
2022/08/10 06:31:50;;;;;;;17.08;11.80;;;;;;;;;;5108405;28;20024;-73
2022/08/10 06:34:27;;;;;;;16.05;12.13;;;;;;;;;;5110677;28;20028;-76
2022/08/10 06:36:57;;;;;;;16.38;11.27;;;;;;;;;;5101435;28;20024;-78
2022/08/10 06:39:24;;;;;;;15.70;11.80;;;;;;;;;;5088459;28;20020;-77
2022/08/10 06:41:53;;;;;;;16.42;12.23;;;;;;;;;;5088878;28;20024;-77
2022/08/10 06:44:22;;;;;;;18.05;12.43;;;;;;;;;;5089209;28;20059;-78
2022/08/10 06:48:54;;;;;;;19.25;11.98;;;;;;;;;;5130198;27;20313;-76
2022/08/10 06:51:22;;;;;;;16.77;13.18;;;;;;;;;;5111221;28;20055;-77
2022/08/10 06:53:51;;;;;;;15.00;12.32;;;;;;;;;;5093000;28;20052;-78
2022/08/10 06:58:13;;;;;;;15.88;11.63;;;;;;;;;;5111852;27;20109;-78
2022/08/10 07:00:42;;;;;;;15.40;12.15;;;;;;;;;;5090671;28;20059;-78
2022/08/10 07:03:10;;;;;;;15.82;13.10;;;;;;;;;;5089660;28;20016;-79
2022/08/10 07:06:44;;;;;;;16.40;12.27;;;;;;;;;;5114724;27;20899;-78
2022/08/10 07:09:12;;;;;;;15.10;11.52;;;;;;;;;;5090741;28;20028;-78
2022/08/10 07:11:39;;;;;;;14.48;11.48;;;;;;;;;;5087926;28;20025;-77
2022/08/10 07:14:06;;;;;;;17.50;12.02;;;;;;;;;;5090588;28;20056;-80
2022/08/10 07:16:56;;;;;;;17.98;12.43;;;;;;;;;;5110734;27;20775;-77
2022/08/10 07:19:23;;;;;;;16.67;13.00;;;;;;;;;;5110995;28;20020;-74
2022/08/10 07:21:51;;;;;;;15.77;12.57;;;;;;;;;;5110887;28;20030;-72
2022/08/10 07:24:17;;;;;;;17.95;11.88;;;;;;;;;;5110474;28;20027;-74
2022/08/10 07:26:47;;;;;;;14.48;10.25;;;;;;;;;;5110969;28;20081;-77
2022/08/10 07:29:14;;;;;;;17.88;12.43;;;;;;;;;;5109423;28;20024;-80
2022/08/10 07:31:41;;;;;;;16.58;12.48;;;;;;;;;;5107653;28;20028;-84
2022/08/10 07:34:08;;;;;;;15.98;11.77;;;;;;;;;;5110730;28;20032;-76
2022/08/10 07:36:35;;;;;;;15.40;11.90;;;;;;;;;;5110052;28;20032;-80
2022/08/10 07:39:03;;;;;;;14.57;11.43;;;;;;;;;;5101820;28;20065;-83
2022/08/10 07:41:31;;;;;;;15.20;12.65;;;;;;;;;;5089874;28;20028;-82
2022/08/10 07:44:03;;;;;;;17.48;13.35;;;;;;;;;;5089439;28;20020;-80
2022/08/10 07:46:36;;;;;;;15.20;12.07;;;;;;;;;;5088887;28;20480;-83
2022/08/10 07:49:28;;;;;;;15.27;11.38;;;;;;;;;;5088744;28;20028;-81
2022/08/10 07:51:56;;;;;;;16.20;12.05;;;;;;;;;;5089443;28;20561;-78
2022/08/10 07:54:27;;;;;;;15.30;11.85;;;;;;;;;;5090223;28;20108;-80
2022/08/10 07:57:02;;;;;;;16.50;11.50;;;;;;;;;;5088840;28;20432;-80
2022/08/10 07:59:36;;;;;;;18.75;12.02;;;;;;;;;;5088269;28;20027;-81
2022/08/10 08:04:13;;;;;;;16.08;10.88;;;;;;;;;;5110963;27;20405;-80
2022/08/10 08:06:49;;;;;;;16.40;11.77;;;;;;;;;;5110726;28;20028;-80
2022/08/10 08:10:01;;;;;;;16.83;11.55;;;;;;;;;;5110846;27;20420;-79
2022/08/10 08:12:28;;;;;;;17.63;11.32;;;;;;;;;;5109734;28;20102;-82
2022/08/10 08:14:56;;;;;;;13.10;10.75;;;;;;;;;;5111275;28;20023;-81
2022/08/10 08:17:25;;;;;;;15.10;10.98;;;;;;;;;;5109948;28;20024;-83
2022/08/10 08:22:52;;;;;;;13.68;11.23;;;;;;;;;;5111884;27;20458;-83
2022/08/10 08:25:19;;;;;;;17.13;10.80;;;;;;;;;;5111068;28;20533;-82
2022/08/10 08:28:54;;;;;;;13.68;10.93;;;;;;;;;;5111070;27;20389;-79
2022/08/10 08:31:21;;;;;;;16.27;11.18;;;;;;;;;;5110913;28;20430;-84
2022/08/10 08:33:48;;;;;;;15.10;11.40;;;;;;;;;;5111380;28;20027;-78
2022/08/10 08:36:15;;;;;;;13.48;11.18;;;;;;;;;;5110844;28;20483;-82
2022/08/10 08:38:42;;;;;;;17.75;10.90;;;;;;;;;;5111250;28;20024;-84
2022/08/10 08:41:11;;;;;;;15.60;11.35;;;;;;;;;;5110382;28;20081;-77
2022/08/10 08:43:46;;;;;;;17.13;12.10;;;;;;;;;;5109211;28;20024;-79
2022/08/10 08:46:32;;;;;;;12.93;10.70;;;;;;;;;;5091421;28;20439;-78
2022/08/10 08:49:08;;;;;;;14.90;10.98;;;;;;;;;;5090654;28;20070;-83
2022/08/10 08:51:43;;;;;;;17.35;12.05;;;;;;;;;;5090306;28;20100;-83
2022/08/10 08:54:28;;;;;;;15.10;11.60;;;;;;;;;;5088835;28;20549;-81
2022/08/10 08:57:03;;;;;;;14.82;11.52;;;;;;;;;;5089714;28;20471;-83
2022/08/10 08:59:30;;;;;;;14.60;10.88;;;;;;;;;;5090499;28;20028;-82
2022/08/10 09:02:16;;;;;;;14.23;10.65;;;;;;;;;;5090326;28;20024;-85
2022/08/10 09:05:01;;;;;;;14.80;11.25;;;;;;;;;;5090413;28;20021;-83
2022/08/10 09:07:30;;;;;;;13.98;10.45;;;;;;;;;;5091182;28;20384;-83
2022/08/10 09:10:17;;;;;;;14.75;10.32;;;;;;;;;;5090237;28;20487;-81
2022/08/10 09:12:48;;;;;;;15.48;10.05;;;;;;;;;;5088932;28;20024;-78
2022/08/10 09:15:17;;;;;;;13.55;10.23;;;;;;;;;;5090534;28;20020;-80
2022/08/10 09:17:46;;;;;;;15.60;10.85;;;;;;;;;;5089950;28;20476;-80
2022/08/10 09:20:12;;;;;;;13.77;10.73;;;;;;;;;;5090037;28;20036;-82
2022/08/10 09:22:51;;;;;;;16.90;12.45;;;;;;;;;;5089234;28;20030;-83
2022/08/10 09:25:18;;;;;;;15.85;11.48;;;;;;;;;;5090966;28;20056;-83
2022/08/10 09:27:49;;;;;;;13.68;11.05;;;;;;;;;;5088913;28;20412;-81
2022/08/10 09:30:17;;;;;;;15.75;11.63;;;;;;;;;;5090324;28;20024;-82
2022/08/10 09:32:47;;;;;;;15.25;12.48;;;;;;;;;;5090574;28;20021;-83
2022/08/10 09:35:16;;;;;;;14.65;10.80;;;;;;;;;;5090523;28;20349;-85
2022/08/10 09:37:53;;;;;;;14.75;10.38;;;;;;;;;;5090589;28;20052;-82
2022/08/10 09:40:25;;;;;;;14.98;11.15;;;;;;;;;;5074600;28;20028;-83
2022/08/10 09:43:07;;;;;;;18.15;11.93;;;;;;;;;;5076369;28;20392;-82
2022/08/10 09:46:05;;;;;;;15.30;11.15;;;;;;;;;;5076557;28;20033;-84
2022/08/10 09:48:50;;;;;;;15.00;10.20;;;;;;;;;;5053596;28;20053;-84
2022/08/10 09:51:36;;;;;;;15.65;11.07;;;;;;;;;;5075983;28;20037;-83
2022/08/10 09:54:22;;;;;;;15.32;10.52;;;;;;;;;;5074689;28;20119;-81
2022/08/10 09:56:57;;;;;;;13.40;10.05;;;;;;;;;;5053758;28;20036;-80
2022/08/10 09:59:56;;;;;;;12.93;9.18;;;;;;;;;;5074512;28;20418;-81
2022/08/10 10:02:42;;;;;;;12.05;9.30;;;;;;;;;;5063262;28;20044;-80
2022/08/10 10:05:21;;;;;;;13.27;9.63;;;;;;;;;;5090506;28;20587;-82
2022/08/10 10:08:00;;;;;;;13.23;9.40;;;;;;;;;;5075152;28;20399;-79
2022/08/10 10:10:34;;;;;;;12.50;9.32;;;;;;;;;;5090704;28;20016;-79
2022/08/10 10:13:07;;;;;;;13.95;8.18;;;;;;;;;;5074834;28;20031;-78
2022/08/10 10:15:37;;;;;;;13.52;9.23;;;;;;;;;;5089668;28;20055;-79
2022/08/10 10:18:22;;;;;;;15.13;9.70;;;;;;;;;;5094703;28;20499;-77
2022/08/10 10:20:54;;;;;;;12.27;9.60;;;;;;;;;;5095247;28;20102;-79
2022/08/10 10:23:23;;;;;;;12.68;9.60;;;;;;;;;;5094200;28;20122;-79
2022/08/10 10:25:55;;;;;;;13.32;10.30;;;;;;;;;;5094655;28;20041;-80
2022/08/10 10:28:21;;;;;;;;;;;;;;;;;;5093865;28;20117;-78
2022/08/10 10:30:55;;;;;;;14.15;9.00;;;;;;;;;;5095210;28;20361;-79
2022/08/10 10:33:44;;;;;;;13.45;10.25;;;;;;;;;;5093589;28;20028;-83
2022/08/10 10:36:14;;;;;;;12.70;9.82;;;;;;;;;;5074324;28;20112;-80
2022/08/10 10:38:41;;;;;;;13.20;10.13;;;;;;;;;;5094981;28;20103;-79
2022/08/10 10:41:16;;;;;;;12.52;10.00;;;;;;;;;;5093355;28;20379;-80
2022/08/10 10:44:01;;;;;;;11.68;9.05;;;;;;;;;;5094818;28;20049;-78
2022/08/10 10:46:30;;;;;;;12.93;9.10;;;;;;;;;;5094249;28;20017;-80
2022/08/10 10:48:59;;;;;;;13.50;9.05;;;;;;;;;;5093632;28;20036;-77
2022/08/10 10:51:28;;;;;;;12.80;8.80;;;;;;;;;;5093931;28;20043;-79
2022/08/10 10:54:15;;;;;;;12.48;9.23;;;;;;;;;;5094298;28;20031;-76
2022/08/10 10:57:00;;;;;;;12.63;10.35;;;;;;;;;;5093444;28;20024;-80
2022/08/10 10:59:38;;;;;;;12.05;8.95;;;;;;;;;;5093452;28;20024;-77
2022/08/10 11:02:23;;;;;;;14.30;10.02;;;;;;;;;;5092923;28;20016;-81
2022/08/10 11:04:55;;;;;;;13.27;9.93;;;;;;;;;;5094715;28;20078;-77
2022/08/10 11:07:31;;;;;;;12.38;9.00;;;;;;;;;;5094287;28;20550;-81
2022/08/10 11:09:59;;;;;;;12.20;9.32;;;;;;;;;;5094440;28;20024;-77
2022/08/10 11:12:52;;;;;;;15.02;10.15;;;;;;;;;;5094454;28;20394;-80
2022/08/10 11:15:57;;;;;;;16.60;10.98;;;;;;;;;;5090730;28;20067;-79
2022/08/10 11:18:32;;;;;;;15.23;11.35;;;;;;;;;;5051948;28;20041;-79
2022/08/10 11:21:17;;;;;;;14.48;10.35;;;;;;;;;;5035358;28;20546;-83
2022/08/10 11:23:47;;;;;;;16.08;11.70;;;;;;;;;;5080069;28;20032;-80
2022/08/10 11:26:16;;;;;;;12.48;8.98;;;;;;;;;;5093130;28;20020;-82
2022/08/10 11:28:59;;;;;;;15.80;11.68;;;;;;;;;;5092473;28;20117;-83
2022/08/10 11:31:49;;;;;;;15.68;11.55;;;;;;;;;;5094252;28;20103;-80
2022/08/10 11:34:28;;;;;;;14.50;11.32;;;;;;;;;;5081896;28;20028;-78
2022/08/10 11:37:02;;;;;;;14.63;10.20;;;;;;;;;;5085187;28;20147;-78
2022/08/10 11:39:38;;;;;;;15.50;11.13;;;;;;;;;;5077094;28;20480;-78
2022/08/10 11:42:14;;;;;;;14.35;10.68;;;;;;;;;;5094487;28;20361;-82
2022/08/10 11:45:04;;;;;;;14.07;9.90;;;;;;;;;;5093811;28;20375;-81
2022/08/10 11:47:44;;;;;;;17.33;10.52;;;;;;;;;;5084243;28;20036;-80
2022/08/10 11:50:10;;;;;;;13.90;10.32;;;;;;;;;;5092953;28;20016;-80
2022/08/10 11:52:39;;;;;;;14.93;11.02;;;;;;;;;;5092437;28;20042;-82
2022/08/10 11:55:11;;;;;;;13.98;10.43;;;;;;;;;;5092952;28;20024;-81
2022/08/10 11:57:37;;;;;;;12.82;10.32;;;;;;;;;;5091972;28;20020;-79
2022/08/10 12:00:06;;;;;;;15.85;9.55;;;;;;;;;;5092398;28;20115;-76
2022/08/10 12:02:35;;;;;;;16.50;10.68;;;;;;;;;;5093372;28;20480;-77
2022/08/10 12:05:15;;;;;;;14.50;10.30;;;;;;;;;;5093194;28;20024;-79
2022/08/10 12:07:42;;;;;;;20.70;10.90;;;;;;;;;;5093855;28;20039;-81
2022/08/10 12:10:09;;;;;;;14.48;9.38;;;;;;;;;;5093751;28;20385;-80
2022/08/10 12:12:39;;;;;;;15.00;10.73;;;;;;;;;;5092160;28;20028;-76
2022/08/10 12:15:12;;;;;;;10.98;8.52;;;;;;;;;;5092462;28;20479;-80
2022/08/10 12:17:42;;;;;;;13.38;8.77;;;;;;;;;;5093362;28;20050;-81
2022/08/10 12:20:27;;;;;;;12.52;8.25;;;;;;;;;;5093845;28;20024;-79
2022/08/10 12:22:57;;;;;;;10.30;7.90;;;;;;;;;;5093653;28;20020;-76
2022/08/10 12:25:43;;;;;;;12.52;8.43;;;;;;;;;;5091847;28;20494;-76
2022/08/10 12:28:24;;;;;;;10.10;7.38;;;;;;;;;;5093387;28;20048;-77
2022/08/10 12:30:53;;;;;;;10.95;7.53;;;;;;;;;;5093477;28;20024;-77
2022/08/10 12:33:24;;;;;;;13.60;8.05;;;;;;;;;;5093124;28;20061;-77
2022/08/10 12:36:11;;;;;;;12.00;7.72;;;;;;;;;;5093561;28;20031;-80
2022/08/10 12:38:49;;;;;;;11.48;7.28;;;;;;;;;;5092761;28;20036;-80
2022/08/10 12:41:28;;;;;;;10.80;7.43;;;;;;;;;;5092063;28;20032;-78
2022/08/10 12:44:05;;;;;;;12.15;8.23;;;;;;;;;;5093836;28;20038;-76
2022/08/10 12:46:39;;;;;;;10.73;7.78;;;;;;;;;;5092907;28;20056;-78
2022/08/10 12:49:09;;;;;;;10.38;7.22;;;;;;;;;;5093452;28;20103;-78
2022/08/10 12:51:37;;;;;;;12.57;8.05;;;;;;;;;;5092000;28;20035;-80
2022/08/10 12:54:03;;;;;;;11.40;7.30;;;;;;;;;;5091530;28;20024;-79
2022/08/10 12:56:35;;;;;;;13.07;8.85;;;;;;;;;;5092031;28;20110;-77
2022/08/10 12:59:03;;;;;;;11.25;7.95;;;;;;;;;;5091972;28;20474;-77
2022/08/10 13:01:30;;;;;;;12.48;7.90;;;;;;;;;;5092947;28;20099;-77
2022/08/10 13:04:08;;;;;;;11.32;8.15;;;;;;;;;;5093152;28;20031;-79
2022/08/10 13:06:37;;;;;;;11.98;8.50;;;;;;;;;;5091720;28;20024;-78
2022/08/10 13:09:11;;;;;;;10.65;7.85;;;;;;;;;;5093085;28;20036;-78
2022/08/10 13:11:47;;;;;;;13.98;7.30;;;;;;;;;;5093167;28;20027;-79
2022/08/10 13:14:21;;;;;;;10.73;7.50;;;;;;;;;;5094202;28;20103;-79
2022/08/10 13:16:48;;;;;;;10.32;7.13;;;;;;;;;;5097533;28;20395;-78
2022/08/10 13:19:15;;;;;;;11.98;6.75;;;;;;;;;;5096887;28;20523;-78
2022/08/10 13:21:42;;;;;;;9.68;6.53;;;;;;;;;;5096475;28;20020;-77
2022/08/10 13:24:16;;;;;;;8.32;6.45;;;;;;;;;;5096797;28;20027;-78
2022/08/10 13:26:47;;;;;;;8.38;5.70;;;;;;;;;;5096389;28;20027;-78
2022/08/10 13:29:17;;;;;;;8.60;5.00;;;;;;;;;;5096406;28;20038;-77
2022/08/10 13:31:46;;;;;;;9.38;6.68;;;;;;;;;;5096646;28;20024;-78
2022/08/10 13:34:22;;;;;;;9.20;6.07;;;;;;;;;;5096586;28;20039;-77
2022/08/10 13:37:00;;;;;;;9.10;6.10;;;;;;;;;;5096055;28;20085;-79
2022/08/10 13:39:34;;;;;;;9.85;6.10;;;;;;;;;;5095262;28;20024;-79
2022/08/10 13:42:02;;;;;;;11.45;6.00;;;;;;;;;;5096062;28;20020;-77
2022/08/10 13:44:30;;;;;;;9.50;5.80;;;;;;;;;;5096429;28;20028;-78
2022/08/10 13:46:57;;;;;;;8.90;5.72;;;;;;;;;;5096318;28;20038;-78
2022/08/10 13:49:24;;;;;;;8.85;6.07;;;;;;;;;;5096292;28;20024;-77
2022/08/10 13:51:51;;;;;;;6.97;4.50;;;;;;;;;;5096413;28;20360;-79
2022/08/10 13:54:18;;;;;;;8.50;4.93;;;;;;;;;;5095010;28;20031;-81
2022/08/10 13:56:46;;;;;;;8.93;5.82;;;;;;;;;;5094469;28;20020;-80
2022/08/10 13:59:12;;;;;;;9.23;5.68;;;;;;;;;;5096178;28;20050;-78
2022/08/10 14:01:39;;;;;;;8.60;5.85;;;;;;;;;;5094936;28;20055;-79
2022/08/10 14:04:05;;;;;;;8.82;6.32;;;;;;;;;;5095668;28;20471;-77
2022/08/10 14:06:32;;;;;;;8.35;5.60;;;;;;;;;;5095957;28;20052;-78
2022/08/10 14:09:10;;;;;;;9.88;6.18;;;;;;;;;;5076688;28;20039;-78
2022/08/10 14:11:39;;;;;;;8.90;6.25;;;;;;;;;;5075068;28;20028;-78
2022/08/10 14:14:14;;;;;;;12.20;6.65;;;;;;;;;;5074361;28;20024;-80
2022/08/10 14:16:41;;;;;;;8.98;6.32;;;;;;;;;;5075575;28;20032;-78
2022/08/10 14:19:11;;;;;;;9.68;6.57;;;;;;;;;;5075168;28;20032;-81
2022/08/10 14:21:38;;;;;;;8.80;6.25;;;;;;;;;;5076043;28;20518;-78
2022/08/10 14:24:04;;;;;;;14.43;6.15;;;;;;;;;;5074923;28;20028;-78
2022/08/10 14:26:31;;;;;;;9.50;6.15;;;;;;;;;;5075131;28;20028;-78
2022/08/10 14:29:08;;;;;;;9.77;7.13;;;;;;;;;;5073994;28;20056;-78
2022/08/10 14:31:36;;;;;;;9.82;6.53;;;;;;;;;;5074860;28;20024;-78
2022/08/10 14:34:04;;;;;;;10.15;6.55;;;;;;;;;;5075349;28;20031;-78
2022/08/10 14:36:41;;;;;;;10.32;6.65;;;;;;;;;;5075544;28;20495;-78
2022/08/10 14:39:07;;;;;;;9.40;6.63;;;;;;;;;;5074813;28;20025;-79
2022/08/10 14:41:36;;;;;;;10.32;5.82;;;;;;;;;;5075061;28;20491;-79
2022/08/10 14:44:07;;;;;;;9.38;6.18;;;;;;;;;;5073751;28;20063;-78
2022/08/10 14:46:36;;;;;;;11.38;6.60;;;;;;;;;;5074653;28;20024;-78
2022/08/10 14:49:02;;;;;;;9.57;6.45;;;;;;;;;;5074916;28;20123;-78
2022/08/10 14:51:29;;;;;;;10.88;6.88;;;;;;;;;;5074836;28;20403;-77
2022/08/10 14:53:58;;;;;;;11.57;6.90;;;;;;;;;;5074374;28;20032;-78
2022/08/10 14:56:26;;;;;;;13.10;6.88;;;;;;;;;;5073473;28;20391;-77
2022/08/10 14:58:54;;;;;;;10.70;6.75;;;;;;;;;;5074327;28;20035;-77
2022/08/10 15:01:21;;;;;;;10.50;6.72;;;;;;;;;;5071881;28;20371;-77
2022/08/10 15:03:49;;;;;;;9.80;7.00;;;;;;;;;;5074403;28;20025;-78
2022/08/10 15:06:18;;;;;;;11.32;6.30;;;;;;;;;;5072889;28;20067;-77
2022/08/10 15:08:44;;;;;;;10.30;7.47;;;;;;;;;;5074063;28;20043;-77
2022/08/10 15:11:11;;;;;;;11.15;8.20;;;;;;;;;;5074466;28;20020;-77
2022/08/10 15:13:41;;;;;;;10.52;7.15;;;;;;;;;;5073966;28;20031;-77
2022/08/10 15:16:08;;;;;;;10.70;7.28;;;;;;;;;;5074354;28;20016;-77
2022/08/10 15:18:35;;;;;;;9.70;7.10;;;;;;;;;;5074330;28;20043;-76
2022/08/10 15:21:02;;;;;;;10.52;6.97;;;;;;;;;;5073822;28;20473;-76
2022/08/10 15:23:29;;;;;;;10.38;7.25;;;;;;;;;;5074170;28;20028;-76
2022/08/10 15:25:58;;;;;;;11.15;7.40;;;;;;;;;;5074124;28;20028;-76
2022/08/10 15:28:25;;;;;;;13.25;6.65;;;;;;;;;;5073433;28;20052;-76
2022/08/10 15:30:52;;;;;;;10.18;6.78;;;;;;;;;;5072820;28;20472;-78
2022/08/10 15:38:56;;;;;;;9.98;6.22;;;;;;;;;;5074222;28;20043;-77
2022/08/10 15:41:33;;;;;;;11.10;6.25;;;;;;;;;;5073486;28;20476;-77
2022/08/10 15:43:59;;;;;;;12.55;6.25;;;;;;;;;;5072721;28;20511;-77
2022/08/10 15:46:33;;;;;;;9.63;6.25;;;;;;;;;;5072623;28;20044;-77
2022/08/10 15:49:01;;;;;;;8.85;5.95;;;;;;;;;;5072119;28;20037;-76
2022/08/10 15:51:35;;;;;;;9.05;6.35;;;;;;;;;;5074028;28;20025;-76
2022/08/10 15:54:06;;;;;;;10.07;6.78;;;;;;;;;;5072452;28;20020;-76
2022/08/10 15:56:42;;;;;;;13.13;8.07;;;;;;;;;;5073381;28;20040;-77
2022/08/10 15:59:10;;;;;;;12.93;7.05;;;;;;;;;;5072412;28;20028;-77
2022/08/10 16:01:44;;;;;;;9.93;6.35;;;;;;;;;;5072291;28;20060;-79
2022/08/10 16:04:14;;;;;;;10.07;6.20;;;;;;;;;;5072047;28;20024;-79
2022/08/10 16:06:49;;;;;;;8.57;5.03;;;;;;;;;;5073499;28;20048;-79